sensor_id;sensor_type;location;lat;lon;timestamp;temperature;humidity
67157;SHT31;54086;50.126;8.710;2022-12-19T00:00:22;-1.95;85.10
67157;SHT31;54086;50.126;8.710;2022-12-19T00:02:48;-1.97;84.95
67157;SHT31;54086;50.126;8.710;2022-12-19T00:05:14;-1.95;84.80
67157;SHT31;54086;50.126;8.710;2022-12-19T00:07:39;-1.97;84.90
67157;SHT31;54086;50.126;8.710;2022-12-19T00:10:05;-1.92;84.62
67157;SHT31;54086;50.126;8.710;2022-12-19T00:12:31;-1.88;84.82
67157;SHT31;54086;50.126;8.710;2022-12-19T00:14:56;-1.90;84.76
67157;SHT31;54086;50.126;8.710;2022-12-19T00:17:22;-1.85;84.79
67157;SHT31;54086;50.126;8.710;2022-12-19T00:19:47;-1.88;84.92
67157;SHT31;54086;50.126;8.710;2022-12-19T00:22:13;-1.88;84.97
67157;SHT31;54086;50.126;8.710;2022-12-19T00:24:38;-1.88;84.96
67157;SHT31;54086;50.126;8.710;2022-12-19T00:27:04;-1.88;84.89
67157;SHT31;54086;50.126;8.710;2022-12-19T00:29:29;-1.84;84.82
67157;SHT31;54086;50.126;8.710;2022-12-19T00:31:55;-1.88;84.90
67157;SHT31;54086;50.126;8.710;2022-12-19T00:34:20;-1.84;85.00
67157;SHT31;54086;50.126;8.710;2022-12-19T00:36:45;-1.85;84.90
67157;SHT31;54086;50.126;8.710;2022-12-19T00:39:11;-1.80;84.88
67157;SHT31;54086;50.126;8.710;2022-12-19T00:41:38;-1.78;84.80
67157;SHT31;54086;50.126;8.710;2022-12-19T00:44:10;-1.75;84.92
67157;SHT31;54086;50.126;8.710;2022-12-19T00:46:36;-1.77;84.84
67157;SHT31;54086;50.126;8.710;2022-12-19T00:49:03;-1.75;84.87
67157;SHT31;54086;50.126;8.710;2022-12-19T00:51:31;-1.77;85.02
67157;SHT31;54086;50.126;8.710;2022-12-19T00:53:57;-1.66;85.13
67157;SHT31;54086;50.126;8.710;2022-12-19T00:56:25;-1.63;84.97
67157;SHT31;54086;50.126;8.710;2022-12-19T00:58:51;-1.71;84.92
67157;SHT31;54086;50.126;8.710;2022-12-19T01:01:28;-1.70;84.75
67157;SHT31;54086;50.126;8.710;2022-12-19T01:03:54;-1.67;84.93
67157;SHT31;54086;50.126;8.710;2022-12-19T01:06:19;-1.59;84.72
67157;SHT31;54086;50.126;8.710;2022-12-19T01:08:45;-1.61;84.76
67157;SHT31;54086;50.126;8.710;2022-12-19T01:11:11;-1.50;84.47
67157;SHT31;54086;50.126;8.710;2022-12-19T01:13:38;-1.54;84.83
67157;SHT31;54086;50.126;8.710;2022-12-19T01:16:05;-1.56;84.61
67157;SHT31;54086;50.126;8.710;2022-12-19T01:18:32;-1.57;84.61
67157;SHT31;54086;50.126;8.710;2022-12-19T01:21:03;-1.59;84.61
67157;SHT31;54086;50.126;8.710;2022-12-19T01:23:29;-1.63;84.50
67157;SHT31;54086;50.126;8.710;2022-12-19T01:25:55;-1.67;84.78
67157;SHT31;54086;50.126;8.710;2022-12-19T01:28:21;-1.70;84.60
67157;SHT31;54086;50.126;8.710;2022-12-19T01:30:47;-1.61;84.66
67157;SHT31;54086;50.126;8.710;2022-12-19T01:33:14;-1.51;84.59
67157;SHT31;54086;50.126;8.710;2022-12-19T01:35:41;-1.54;84.54
67157;SHT31;54086;50.126;8.710;2022-12-19T01:38:07;-1.56;84.52
67157;SHT31;54086;50.126;8.710;2022-12-19T01:40:35;-1.59;84.51
67157;SHT31;54086;50.126;8.710;2022-12-19T01:43:00;-1.60;84.55
67157;SHT31;54086;50.126;8.710;2022-12-19T01:45:32;-1.63;84.65
67157;SHT31;54086;50.126;8.710;2022-12-19T01:48:26;-1.67;84.82
67157;SHT31;54086;50.126;8.710;2022-12-19T01:51:00;-1.61;84.92
67157;SHT31;54086;50.126;8.710;2022-12-19T01:53:50;-1.63;85.10
67157;SHT31;54086;50.126;8.710;2022-12-19T01:56:14;-1.63;85.02
67157;SHT31;54086;50.126;8.710;2022-12-19T01:58:42;-1.60;85.61
67157;SHT31;54086;50.126;8.710;2022-12-19T02:01:11;-1.59;85.83
67157;SHT31;54086;50.126;8.710;2022-12-19T02:03:37;-1.59;85.59
67157;SHT31;54086;50.126;8.710;2022-12-19T02:06:04;-1.61;85.93
67157;SHT31;54086;50.126;8.710;2022-12-19T02:08:30;-1.61;86.13
67157;SHT31;54086;50.126;8.710;2022-12-19T02:10:56;-1.61;86.52
67157;SHT31;54086;50.126;8.710;2022-12-19T02:13:22;-1.51;87.32
67157;SHT31;54086;50.126;8.710;2022-12-19T02:16:18;-1.53;86.74
67157;SHT31;54086;50.126;8.710;2022-12-19T02:19:14;-1.63;86.15
67157;SHT31;54086;50.126;8.710;2022-12-19T02:21:54;-1.64;86.40
67157;SHT31;54086;50.126;8.710;2022-12-19T02:33:02;-1.59;87.27
67157;SHT31;54086;50.126;8.710;2022-12-19T02:35:39;-1.63;87.39
67157;SHT31;54086;50.126;8.710;2022-12-19T02:38:16;-1.59;87.52
67157;SHT31;54086;50.126;8.710;2022-12-19T02:40:54;-1.59;87.71
67157;SHT31;54086;50.126;8.710;2022-12-19T02:43:22;-1.60;87.35
67157;SHT31;54086;50.126;8.710;2022-12-19T02:45:49;-1.56;88.04
67157;SHT31;54086;50.126;8.710;2022-12-19T02:48:16;-1.57;88.07
67157;SHT31;54086;50.126;8.710;2022-12-19T02:50:44;-1.49;88.25
67157;SHT31;54086;50.126;8.710;2022-12-19T02:53:11;-1.56;88.15
67157;SHT31;54086;50.126;8.710;2022-12-19T02:55:43;-1.47;87.77
67157;SHT31;54086;50.126;8.710;2022-12-19T02:58:37;-1.46;87.74
67157;SHT31;54086;50.126;8.710;2022-12-19T03:01:28;-1.46;87.72
67157;SHT31;54086;50.126;8.710;2022-12-19T03:09:15;-1.44;88.21
67157;SHT31;54086;50.126;8.710;2022-12-19T03:11:44;-1.46;88.47
67157;SHT31;54086;50.126;8.710;2022-12-19T03:14:13;-1.46;88.51
67157;SHT31;54086;50.126;8.710;2022-12-19T03:16:40;-1.43;88.36
67157;SHT31;54086;50.126;8.710;2022-12-19T03:19:12;-1.44;88.54
67157;SHT31;54086;50.126;8.710;2022-12-19T03:21:40;-1.46;88.33
67157;SHT31;54086;50.126;8.710;2022-12-19T03:24:08;-1.32;88.49
67157;SHT31;54086;50.126;8.710;2022-12-19T03:27:01;-1.39;88.37
67157;SHT31;54086;50.126;8.710;2022-12-19T03:29:33;-1.35;88.40
67157;SHT31;54086;50.126;8.710;2022-12-19T03:32:03;-1.35;88.04
67157;SHT31;54086;50.126;8.710;2022-12-19T03:37:05;-1.36;88.03
67157;SHT31;54086;50.126;8.710;2022-12-19T03:39:32;-1.30;88.37
67157;SHT31;54086;50.126;8.710;2022-12-19T03:41:59;-1.36;88.37
67157;SHT31;54086;50.126;8.710;2022-12-19T03:44:44;-1.37;88.28
67157;SHT31;54086;50.126;8.710;2022-12-19T03:47:14;-1.30;88.38
67157;SHT31;54086;50.126;8.710;2022-12-19T03:49:41;-1.32;88.11
67157;SHT31;54086;50.126;8.710;2022-12-19T03:55:11;-1.36;87.87
67157;SHT31;54086;50.126;8.710;2022-12-19T03:58:02;-1.32;87.75
67157;SHT31;54086;50.126;8.710;2022-12-19T04:00:30;-1.30;88.02
67157;SHT31;54086;50.126;8.710;2022-12-19T04:02:58;-1.30;88.14
67157;SHT31;54086;50.126;8.710;2022-12-19T04:05:25;-1.19;88.14
67157;SHT31;54086;50.126;8.710;2022-12-19T04:07:55;-1.20;88.04
67157;SHT31;54086;50.126;8.710;2022-12-19T04:10:24;-1.13;88.48
67157;SHT31;54086;50.126;8.710;2022-12-19T04:12:55;-1.10;88.38
67157;SHT31;54086;50.126;8.710;2022-12-19T04:15:33;-1.19;88.34
67157;SHT31;54086;50.126;8.710;2022-12-19T04:18:02;-1.16;88.37
67157;SHT31;54086;50.126;8.710;2022-12-19T04:20:30;-1.16;88.30
67157;SHT31;54086;50.126;8.710;2022-12-19T04:22:57;-1.20;88.36
67157;SHT31;54086;50.126;8.710;2022-12-19T04:25:34;-1.28;88.48
67157;SHT31;54086;50.126;8.710;2022-12-19T04:28:08;-1.22;88.56
67157;SHT31;54086;50.126;8.710;2022-12-19T04:30:36;-1.22;88.92
67157;SHT31;54086;50.126;8.710;2022-12-19T04:33:03;-1.17;88.82
67157;SHT31;54086;50.126;8.710;2022-12-19T04:35:28;-1.17;88.83
67157;SHT31;54086;50.126;8.710;2022-12-19T04:37:53;-1.17;88.93
67157;SHT31;54086;50.126;8.710;2022-12-19T04:40:19;-1.20;88.68
67157;SHT31;54086;50.126;8.710;2022-12-19T04:42:45;-1.22;88.70
67157;SHT31;54086;50.126;8.710;2022-12-19T04:45:10;-1.22;88.92
67157;SHT31;54086;50.126;8.710;2022-12-19T04:47:35;-1.22;88.86
67157;SHT31;54086;50.126;8.710;2022-12-19T04:50:01;-1.20;89.08
67157;SHT31;54086;50.126;8.710;2022-12-19T04:52:26;-1.20;89.37
67157;SHT31;54086;50.126;8.710;2022-12-19T04:54:51;-1.17;89.25
67157;SHT31;54086;50.126;8.710;2022-12-19T04:57:17;-1.17;89.27
67157;SHT31;54086;50.126;8.710;2022-12-19T04:59:42;-1.17;89.17
67157;SHT31;54086;50.126;8.710;2022-12-19T05:02:07;-1.10;89.05
67157;SHT31;54086;50.126;8.710;2022-12-19T05:04:33;-1.13;89.12
67157;SHT31;54086;50.126;8.710;2022-12-19T05:06:58;-1.12;89.26
67157;SHT31;54086;50.126;8.710;2022-12-19T05:09:24;-1.08;89.15
67157;SHT31;54086;50.126;8.710;2022-12-19T05:11:49;-1.16;88.64
67157;SHT31;54086;50.126;8.710;2022-12-19T05:14:15;-1.10;89.06
67157;SHT31;54086;50.126;8.710;2022-12-19T05:16:40;-1.06;89.08
67157;SHT31;54086;50.126;8.710;2022-12-19T05:19:07;-1.05;89.02
67157;SHT31;54086;50.126;8.710;2022-12-19T05:21:32;-1.08;88.61
67157;SHT31;54086;50.126;8.710;2022-12-19T05:23:57;-1.03;88.89
67157;SHT31;54086;50.126;8.710;2022-12-19T05:26:23;-0.98;89.04
67157;SHT31;54086;50.126;8.710;2022-12-19T05:28:49;-1.08;89.09
67157;SHT31;54086;50.126;8.710;2022-12-19T05:31:18;-1.06;89.11
67157;SHT31;54086;50.126;8.710;2022-12-19T05:33:45;-1.02;89.25
67157;SHT31;54086;50.126;8.710;2022-12-19T05:36:12;-1.02;89.53
67157;SHT31;54086;50.126;8.710;2022-12-19T05:38:38;-1.00;89.41
67157;SHT31;54086;50.126;8.710;2022-12-19T05:41:08;-1.00;89.44
67157;SHT31;54086;50.126;8.710;2022-12-19T05:43:34;-1.00;89.34
67157;SHT31;54086;50.126;8.710;2022-12-19T05:45:59;-1.02;89.59
67157;SHT31;54086;50.126;8.710;2022-12-19T05:48:25;-0.96;89.37
67157;SHT31;54086;50.126;8.710;2022-12-19T05:50:50;-0.95;89.67
67157;SHT31;54086;50.126;8.710;2022-12-19T05:53:18;-0.93;89.46
67157;SHT31;54086;50.126;8.710;2022-12-19T05:55:44;-0.89;89.38
67157;SHT31;54086;50.126;8.710;2022-12-19T05:58:09;-0.95;89.46
67157;SHT31;54086;50.126;8.710;2022-12-19T06:00:35;-0.88;89.73
67157;SHT31;54086;50.126;8.710;2022-12-19T06:03:00;-0.93;89.63
67157;SHT31;54086;50.126;8.710;2022-12-19T06:05:25;-0.89;89.67
67157;SHT31;54086;50.126;8.710;2022-12-19T06:07:51;-0.89;89.56
67157;SHT31;54086;50.126;8.710;2022-12-19T06:10:16;-0.95;89.68
67157;SHT31;54086;50.126;8.710;2022-12-19T06:12:42;-0.95;89.71
67157;SHT31;54086;50.126;8.710;2022-12-19T06:15:07;-0.93;89.72
67157;SHT31;54086;50.126;8.710;2022-12-19T06:17:33;-0.92;89.89
67157;SHT31;54086;50.126;8.710;2022-12-19T06:19:58;-0.87;89.98
67157;SHT31;54086;50.126;8.710;2022-12-19T06:22:24;-0.81;89.97
67157;SHT31;54086;50.126;8.710;2022-12-19T06:24:49;-0.75;89.85
67157;SHT31;54086;50.126;8.710;2022-12-19T06:27:14;-0.67;90.07
67157;SHT31;54086;50.126;8.710;2022-12-19T06:29:40;-0.68;89.81
67157;SHT31;54086;50.126;8.710;2022-12-19T06:32:05;-0.74;89.85
67157;SHT31;54086;50.126;8.710;2022-12-19T06:34:30;-0.65;89.70
67157;SHT31;54086;50.126;8.710;2022-12-19T06:36:56;-0.74;89.89
67157;SHT31;54086;50.126;8.710;2022-12-19T06:39:21;-0.79;89.86
67157;SHT31;54086;50.126;8.710;2022-12-19T06:41:47;-0.71;89.82
67157;SHT31;54086;50.126;8.710;2022-12-19T06:44:31;-0.74;89.90
67157;SHT31;54086;50.126;8.710;2022-12-19T06:46:56;-0.79;90.17
67157;SHT31;54086;50.126;8.710;2022-12-19T06:49:22;-0.75;89.94
67157;SHT31;54086;50.126;8.710;2022-12-19T06:51:47;-0.77;89.89
67157;SHT31;54086;50.126;8.710;2022-12-19T06:54:13;-0.78;89.89
67157;SHT31;54086;50.126;8.710;2022-12-19T06:56:40;-0.81;89.61
67157;SHT31;54086;50.126;8.710;2022-12-19T06:59:07;-0.74;90.07
67157;SHT31;54086;50.126;8.710;2022-12-19T07:01:53;-0.57;90.44
67157;SHT31;54086;50.126;8.710;2022-12-19T07:04:28;-0.53;90.31
67157;SHT31;54086;50.126;8.710;2022-12-19T07:06:54;-0.61;90.06
67157;SHT31;54086;50.126;8.710;2022-12-19T07:09:21;-0.61;89.85
67157;SHT31;54086;50.126;8.710;2022-12-19T07:11:46;-0.64;89.89
67157;SHT31;54086;50.126;8.710;2022-12-19T07:14:12;-0.68;90.10
67157;SHT31;54086;50.126;8.710;2022-12-19T07:16:37;-0.65;90.42
67157;SHT31;54086;50.126;8.710;2022-12-19T07:19:03;-0.60;90.69
67157;SHT31;54086;50.126;8.710;2022-12-19T07:21:29;-0.57;90.13
67157;SHT31;54086;50.126;8.710;2022-12-19T07:23:54;-0.57;90.22
67157;SHT31;54086;50.126;8.710;2022-12-19T07:26:19;-0.53;90.30
67157;SHT31;54086;50.126;8.710;2022-12-19T07:28:45;-0.41;90.31
67157;SHT31;54086;50.126;8.710;2022-12-19T07:31:10;-0.37;90.25
67157;SHT31;54086;50.126;8.710;2022-12-19T07:33:36;-0.41;90.04
67157;SHT31;54086;50.126;8.710;2022-12-19T07:36:01;-0.37;90.07
67157;SHT31;54086;50.126;8.710;2022-12-19T07:38:26;-0.41;89.86
67157;SHT31;54086;50.126;8.710;2022-12-19T07:40:52;-0.40;89.68
67157;SHT31;54086;50.126;8.710;2022-12-19T07:43:17;-0.47;89.89
67157;SHT31;54086;50.126;8.710;2022-12-19T07:45:43;-0.48;90.01
67157;SHT31;54086;50.126;8.710;2022-12-19T07:48:08;-0.44;90.01
67157;SHT31;54086;50.126;8.710;2022-12-19T07:50:34;-0.36;90.20
67157;SHT31;54086;50.126;8.710;2022-12-19T07:53:00;-0.37;89.77
67157;SHT31;54086;50.126;8.710;2022-12-19T07:55:25;-0.23;90.01
67157;SHT31;54086;50.126;8.710;2022-12-19T07:57:51;-0.21;89.74
67157;SHT31;54086;50.126;8.710;2022-12-19T08:00:17;-0.30;89.67
67157;SHT31;54086;50.126;8.710;2022-12-19T08:02:43;-0.27;89.72
67157;SHT31;54086;50.126;8.710;2022-12-19T08:05:09;-0.36;89.74
67157;SHT31;54086;50.126;8.710;2022-12-19T08:07:35;-0.24;89.73
67157;SHT31;54086;50.126;8.710;2022-12-19T08:10:00;-0.19;89.58
67157;SHT31;54086;50.126;8.710;2022-12-19T08:12:26;-0.14;89.72
67157;SHT31;54086;50.126;8.710;2022-12-19T08:14:51;-0.14;89.69
67157;SHT31;54086;50.126;8.710;2022-12-19T08:17:17;-0.17;89.45
67157;SHT31;54086;50.126;8.710;2022-12-19T08:19:42;-0.20;89.47
67157;SHT31;54086;50.126;8.710;2022-12-19T08:22:07;-0.17;89.84
67157;SHT31;54086;50.126;8.710;2022-12-19T08:24:33;-0.07;89.71
67157;SHT31;54086;50.126;8.710;2022-12-19T08:26:58;-0.03;90.44
67157;SHT31;54086;50.126;8.710;2022-12-19T08:29:24;-0.05;89.71
67157;SHT31;54086;50.126;8.710;2022-12-19T08:31:49;0.05;89.73
67157;SHT31;54086;50.126;8.710;2022-12-19T08:34:15;0.02;89.67
67157;SHT31;54086;50.126;8.710;2022-12-19T08:36:40;0.01;89.83
67157;SHT31;54086;50.126;8.710;2022-12-19T08:39:06;-0.05;89.48
67157;SHT31;54086;50.126;8.710;2022-12-19T08:41:31;-0.03;89.64
67157;SHT31;54086;50.126;8.710;2022-12-19T08:43:56;0.07;89.75
67157;SHT31;54086;50.126;8.710;2022-12-19T08:46:22;0.01;89.60
67157;SHT31;54086;50.126;8.710;2022-12-19T08:48:47;0.10;89.12
67157;SHT31;54086;50.126;8.710;2022-12-19T08:51:14;0.11;88.84
67157;SHT31;54086;50.126;8.710;2022-12-19T08:53:41;0.08;88.58
67157;SHT31;54086;50.126;8.710;2022-12-19T08:56:16;0.04;88.76
67157;SHT31;54086;50.126;8.710;2022-12-19T08:58:42;0.01;89.22
67157;SHT31;54086;50.126;8.710;2022-12-19T09:01:12;0.08;89.96
67157;SHT31;54086;50.126;8.710;2022-12-19T09:03:39;0.08;89.76
67157;SHT31;54086;50.126;8.710;2022-12-19T09:06:06;0.15;89.90
67157;SHT31;54086;50.126;8.710;2022-12-19T09:08:33;0.31;89.92
67157;SHT31;54086;50.126;8.710;2022-12-19T09:11:10;0.25;89.87
67157;SHT31;54086;50.126;8.710;2022-12-19T09:13:37;0.19;90.00
67157;SHT31;54086;50.126;8.710;2022-12-19T09:16:15;0.24;89.88
67157;SHT31;54086;50.126;8.710;2022-12-19T09:18:43;0.18;89.62
67157;SHT31;54086;50.126;8.710;2022-12-19T09:21:09;0.24;89.38
67157;SHT31;54086;50.126;8.710;2022-12-19T09:23:34;0.24;89.36
67157;SHT31;54086;50.126;8.710;2022-12-19T09:26:10;0.24;89.50
67157;SHT31;54086;50.126;8.710;2022-12-19T09:28:38;0.33;88.99
67157;SHT31;54086;50.126;8.710;2022-12-19T09:31:06;0.33;88.76
67157;SHT31;54086;50.126;8.710;2022-12-19T09:33:33;0.35;88.53
67157;SHT31;54086;50.126;8.710;2022-12-19T09:35:59;0.42;89.25
67157;SHT31;54086;50.126;8.710;2022-12-19T09:38:26;0.39;89.75
67157;SHT31;54086;50.126;8.710;2022-12-19T09:49:17;0.39;89.58
67157;SHT31;54086;50.126;8.710;2022-12-19T09:51:51;0.42;89.80
67157;SHT31;54086;50.126;8.710;2022-12-19T09:57:05;0.39;89.34
67157;SHT31;54086;50.126;8.710;2022-12-19T09:59:42;0.42;89.90
67157;SHT31;54086;50.126;8.710;2022-12-19T10:04:47;0.52;89.42
67157;SHT31;54086;50.126;8.710;2022-12-19T10:07:14;0.49;89.51
67157;SHT31;54086;50.126;8.710;2022-12-19T10:09:42;0.48;89.33
67157;SHT31;54086;50.126;8.710;2022-12-19T10:12:18;0.52;89.75
67157;SHT31;54086;50.126;8.710;2022-12-19T10:14:56;0.53;89.29
67157;SHT31;54086;50.126;8.710;2022-12-19T10:20:28;0.53;89.47
67157;SHT31;54086;50.126;8.710;2022-12-19T10:23:41;0.55;89.40
67157;SHT31;54086;50.126;8.710;2022-12-19T10:26:13;0.65;89.16
67157;SHT31;54086;50.126;8.710;2022-12-19T10:31:49;0.79;90.24
67157;SHT31;54086;50.126;8.710;2022-12-19T10:34:35;0.76;90.44
67157;SHT31;54086;50.126;8.710;2022-12-19T10:40:21;0.75;90.44
67157;SHT31;54086;50.126;8.710;2022-12-19T10:42:53;0.70;90.84
67157;SHT31;54086;50.126;8.710;2022-12-19T10:45:22;0.69;90.78
67157;SHT31;54086;50.126;8.710;2022-12-19T10:47:55;0.75;90.95
67157;SHT31;54086;50.126;8.710;2022-12-19T10:50:26;0.83;90.48
67157;SHT31;54086;50.126;8.710;2022-12-19T10:57:51;0.91;90.31
67157;SHT31;54086;50.126;8.710;2022-12-19T11:00:16;0.91;90.47
67157;SHT31;54086;50.126;8.710;2022-12-19T11:02:45;0.87;89.92
67157;SHT31;54086;50.126;8.710;2022-12-19T11:05:40;0.90;89.84
67157;SHT31;54086;50.126;8.710;2022-12-19T11:15:56;0.94;90.60
67157;SHT31;54086;50.126;8.710;2022-12-19T11:18:23;1.07;90.98
67157;SHT31;54086;50.126;8.710;2022-12-19T11:21:06;1.11;91.21
67157;SHT31;54086;50.126;8.710;2022-12-19T11:23:50;1.04;90.87
67157;SHT31;54086;50.126;8.710;2022-12-19T11:26:27;1.19;90.71
67157;SHT31;54086;50.126;8.710;2022-12-19T11:28:56;1.16;90.82
67157;SHT31;54086;50.126;8.710;2022-12-19T11:31:27;1.16;90.37
67157;SHT31;54086;50.126;8.710;2022-12-19T11:33:55;1.21;90.37
67157;SHT31;54086;50.126;8.710;2022-12-19T11:39:17;1.21;90.40
67157;SHT31;54086;50.126;8.710;2022-12-19T11:42:02;1.17;90.34
67157;SHT31;54086;50.126;8.710;2022-12-19T11:44:43;1.08;90.04
67157;SHT31;54086;50.126;8.710;2022-12-19T11:53:00;1.20;91.05
67157;SHT31;54086;50.126;8.710;2022-12-19T11:55:49;1.23;90.85
67157;SHT31;54086;50.126;8.710;2022-12-19T11:58:16;1.28;90.59
67157;SHT31;54086;50.126;8.710;2022-12-19T12:06:48;1.37;90.59
67157;SHT31;54086;50.126;8.710;2022-12-19T12:09:53;1.42;90.45
67157;SHT31;54086;50.126;8.710;2022-12-19T12:18:05;1.56;90.90
67157;SHT31;54086;50.126;8.710;2022-12-19T12:20:51;1.45;90.76
67157;SHT31;54086;50.126;8.710;2022-12-19T12:23:33;1.37;91.08
67157;SHT31;54086;50.126;8.710;2022-12-19T12:26:18;1.45;91.33
67157;SHT31;54086;50.126;8.710;2022-12-19T12:29:06;1.48;91.19
67157;SHT31;54086;50.126;8.710;2022-12-19T12:34:27;1.52;91.51
67157;SHT31;54086;50.126;8.710;2022-12-19T12:37:13;1.32;91.49
67157;SHT31;54086;50.126;8.710;2022-12-19T12:45:26;1.56;91.74
67157;SHT31;54086;50.126;8.710;2022-12-19T12:47:54;1.58;91.43
67157;SHT31;54086;50.126;8.710;2022-12-19T12:50:23;1.71;91.51
67157;SHT31;54086;50.126;8.710;2022-12-19T12:52:52;1.58;91.23
67157;SHT31;54086;50.126;8.710;2022-12-19T12:55:34;1.50;91.29
67157;SHT31;54086;50.126;8.710;2022-12-19T13:04:02;1.54;91.83
67157;SHT31;54086;50.126;8.710;2022-12-19T13:09:25;1.66;92.25
67157;SHT31;54086;50.126;8.710;2022-12-19T13:12:02;1.61;91.81
67157;SHT31;54086;50.126;8.710;2022-12-19T13:14:49;1.63;91.87
67157;SHT31;54086;50.126;8.710;2022-12-19T13:17:19;1.71;91.78
67157;SHT31;54086;50.126;8.710;2022-12-19T13:24:59;1.80;92.04
67157;SHT31;54086;50.126;8.710;2022-12-19T13:30:11;1.79;91.91
67157;SHT31;54086;50.126;8.710;2022-12-19T13:37:44;1.89;91.83
67157;SHT31;54086;50.126;8.710;2022-12-19T13:42:36;1.93;91.76
67157;SHT31;54086;50.126;8.710;2022-12-19T13:45:24;1.87;91.84
67157;SHT31;54086;50.126;8.710;2022-12-19T13:47:55;1.87;91.86
67157;SHT31;54086;50.126;8.710;2022-12-19T13:50:28;1.93;92.21
67157;SHT31;54086;50.126;8.710;2022-12-19T13:52:54;1.92;92.12
67157;SHT31;54086;50.126;8.710;2022-12-19T13:55:20;1.85;91.77
67157;SHT31;54086;50.126;8.710;2022-12-19T13:57:53;1.82;92.05
67157;SHT31;54086;50.126;8.710;2022-12-19T14:00:21;1.82;92.24
67157;SHT31;54086;50.126;8.710;2022-12-19T14:02:54;1.87;92.71
67157;SHT31;54086;50.126;8.710;2022-12-19T14:05:24;1.92;92.53
67157;SHT31;54086;50.126;8.710;2022-12-19T14:07:51;1.96;92.49
67157;SHT31;54086;50.126;8.710;2022-12-19T14:10:20;1.99;92.34
67157;SHT31;54086;50.126;8.710;2022-12-19T14:12:49;1.92;92.27
67157;SHT31;54086;50.126;8.710;2022-12-19T14:15:36;1.90;92.69
67157;SHT31;54086;50.126;8.710;2022-12-19T14:20:39;1.93;92.42
67157;SHT31;54086;50.126;8.710;2022-12-19T14:23:04;2.00;92.20
67157;SHT31;54086;50.126;8.710;2022-12-19T14:25:49;2.13;92.34
67157;SHT31;54086;50.126;8.710;2022-12-19T14:28:20;2.07;92.02
67157;SHT31;54086;50.126;8.710;2022-12-19T14:30:52;2.13;92.22
67157;SHT31;54086;50.126;8.710;2022-12-19T14:33:31;1.99;92.16
67157;SHT31;54086;50.126;8.710;2022-12-19T14:35:57;1.93;92.28
67157;SHT31;54086;50.126;8.710;2022-12-19T14:38:25;1.99;92.31
67157;SHT31;54086;50.126;8.710;2022-12-19T14:40:52;2.03;92.45
67157;SHT31;54086;50.126;8.710;2022-12-19T14:43:27;1.99;92.20
67157;SHT31;54086;50.126;8.710;2022-12-19T14:48:56;2.00;92.45
67157;SHT31;54086;50.126;8.710;2022-12-19T14:51:34;2.07;92.52
67157;SHT31;54086;50.126;8.710;2022-12-19T14:54:15;2.11;92.60
67157;SHT31;54086;50.126;8.710;2022-12-19T14:57:02;2.07;92.54
67157;SHT31;54086;50.126;8.710;2022-12-19T14:59:43;2.09;92.58
67157;SHT31;54086;50.126;8.710;2022-12-19T15:02:30;2.05;92.73
67157;SHT31;54086;50.126;8.710;2022-12-19T15:05:09;2.07;92.44
67157;SHT31;54086;50.126;8.710;2022-12-19T15:07:40;2.03;92.35
67157;SHT31;54086;50.126;8.710;2022-12-19T15:10:11;2.02;92.55
67157;SHT31;54086;50.126;8.710;2022-12-19T15:13:26;2.10;92.39
67157;SHT31;54086;50.126;8.710;2022-12-19T15:21:01;2.09;92.38
67157;SHT31;54086;50.126;8.710;2022-12-19T15:23:28;2.06;92.48
67157;SHT31;54086;50.126;8.710;2022-12-19T15:26:00;2.09;92.36
67157;SHT31;54086;50.126;8.710;2022-12-19T15:28:37;2.05;92.40
67157;SHT31;54086;50.126;8.710;2022-12-19T15:31:09;2.03;92.61
67157;SHT31;54086;50.126;8.710;2022-12-19T15:33:36;2.05;92.61
67157;SHT31;54086;50.126;8.710;2022-12-19T15:36:01;2.05;92.79
67157;SHT31;54086;50.126;8.710;2022-12-19T15:38:26;2.06;92.83
67157;SHT31;54086;50.126;8.710;2022-12-19T15:40:52;1.96;92.80
67157;SHT31;54086;50.126;8.710;2022-12-19T15:43:20;2.02;92.91
67157;SHT31;54086;50.126;8.710;2022-12-19T15:45:50;1.98;92.87
67157;SHT31;54086;50.126;8.710;2022-12-19T15:48:16;2.00;92.77
67157;SHT31;54086;50.126;8.710;2022-12-19T15:50:43;2.00;92.80
67157;SHT31;54086;50.126;8.710;2022-12-19T15:53:20;1.99;92.75
67157;SHT31;54086;50.126;8.710;2022-12-19T15:55:46;1.95;92.93
67157;SHT31;54086;50.126;8.710;2022-12-19T15:58:12;1.98;93.20
67157;SHT31;54086;50.126;8.710;2022-12-19T16:00:41;1.98;93.09
67157;SHT31;54086;50.126;8.710;2022-12-19T16:03:11;1.93;92.94
67157;SHT31;54086;50.126;8.710;2022-12-19T16:05:37;1.99;93.08
67157;SHT31;54086;50.126;8.710;2022-12-19T16:08:09;2.02;92.99
67157;SHT31;54086;50.126;8.710;2022-12-19T16:10:35;1.95;92.97
67157;SHT31;54086;50.126;8.710;2022-12-19T16:13:01;1.92;93.17
67157;SHT31;54086;50.126;8.710;2022-12-19T16:15:29;2.05;93.05
67157;SHT31;54086;50.126;8.710;2022-12-19T16:17:56;1.96;92.88
67157;SHT31;54086;50.126;8.710;2022-12-19T16:20:28;1.99;92.87
67157;SHT31;54086;50.126;8.710;2022-12-19T16:22:53;1.90;93.14
67157;SHT31;54086;50.126;8.710;2022-12-19T16:25:20;1.82;93.41
67157;SHT31;54086;50.126;8.710;2022-12-19T16:27:53;1.80;93.42
67157;SHT31;54086;50.126;8.710;2022-12-19T16:30:26;1.83;93.55
67157;SHT31;54086;50.126;8.710;2022-12-19T16:32:52;1.83;93.62
67157;SHT31;54086;50.126;8.710;2022-12-19T16:35:20;1.79;93.53
67157;SHT31;54086;50.126;8.710;2022-12-19T16:37:47;1.79;93.70
67157;SHT31;54086;50.126;8.710;2022-12-19T16:40:14;1.83;93.84
67157;SHT31;54086;50.126;8.710;2022-12-19T16:42:41;1.86;93.70
67157;SHT31;54086;50.126;8.710;2022-12-19T16:45:15;1.79;93.87
67157;SHT31;54086;50.126;8.710;2022-12-19T16:47:40;1.75;93.84
67157;SHT31;54086;50.126;8.710;2022-12-19T16:50:20;1.80;93.89
67157;SHT31;54086;50.126;8.710;2022-12-19T16:52:46;1.71;94.00
67157;SHT31;54086;50.126;8.710;2022-12-19T16:55:13;1.73;94.00
67157;SHT31;54086;50.126;8.710;2022-12-19T16:57:43;1.69;94.05
67157;SHT31;54086;50.126;8.710;2022-12-19T17:00:20;1.68;94.08
67157;SHT31;54086;50.126;8.710;2022-12-19T17:02:51;1.69;94.04
67157;SHT31;54086;50.126;8.710;2022-12-19T17:05:50;1.71;93.84
67157;SHT31;54086;50.126;8.710;2022-12-19T17:08:11;1.62;94.05
67157;SHT31;54086;50.126;8.710;2022-12-19T17:10:39;1.62;94.16
67157;SHT31;54086;50.126;8.710;2022-12-19T17:13:08;1.61;94.08
67157;SHT31;54086;50.126;8.710;2022-12-19T17:15:36;1.65;93.89
67157;SHT31;54086;50.126;8.710;2022-12-19T17:18:08;1.61;94.07
67157;SHT31;54086;50.126;8.710;2022-12-19T17:20:38;1.58;94.00
67157;SHT31;54086;50.126;8.710;2022-12-19T17:23:15;1.69;94.07
67157;SHT31;54086;50.126;8.710;2022-12-19T17:25:41;1.73;93.64
67157;SHT31;54086;50.126;8.710;2022-12-19T17:28:06;1.63;93.87
67157;SHT31;54086;50.126;8.710;2022-12-19T17:30:33;1.56;93.91
67157;SHT31;54086;50.126;8.710;2022-12-19T17:32:59;1.58;93.95
67157;SHT31;54086;50.126;8.710;2022-12-19T17:35:26;1.68;94.06
67157;SHT31;54086;50.126;8.710;2022-12-19T17:37:54;1.62;93.91
67157;SHT31;54086;50.126;8.710;2022-12-19T17:40:22;1.63;93.95
67157;SHT31;54086;50.126;8.710;2022-12-19T17:42:50;1.62;94.00
67157;SHT31;54086;50.126;8.710;2022-12-19T17:45:16;1.62;93.90
67157;SHT31;54086;50.126;8.710;2022-12-19T17:47:42;1.56;94.00
67157;SHT31;54086;50.126;8.710;2022-12-19T17:50:26;1.55;94.05
67157;SHT31;54086;50.126;8.710;2022-12-19T17:52:52;1.50;94.26